createdAt,value
2018-09-14T01:31:32.589Z,4.37
2018-09-14T01:31:33.091Z,4.56
2018-09-14T01:31:33.689Z,4.56
2018-09-14T01:31:34.288Z,4.56
2018-09-14T01:31:34.888Z,4.56
2018-09-14T01:31:35.487Z,4.66
2018-09-14T01:31:36.087Z,4.56
2018-09-14T01:32:30.631Z,4.37
2018-09-14T01:32:31.208Z,4.28
2018-09-14T01:32:31.807Z,4.28
2018-09-14T01:32:32.408Z,4.37
2018-09-14T01:32:33.007Z,4.37
2018-09-14T01:32:33.607Z,4.37
2018-09-14T01:32:34.205Z,4.28
2018-09-14T01:32:34.806Z,4.37
2018-09-14T01:33:29.310Z,4.47
2018-09-14T01:33:29.884Z,4.56
2018-09-14T01:33:30.484Z,4.47
2018-09-14T01:33:31.084Z,4.56
2018-09-14T01:33:31.683Z,4.56
2018-09-14T01:33:32.283Z,4.47
2018-09-14T01:33:32.883Z,4.56
2018-09-14T01:33:33.483Z,4.37
2018-09-14T01:34:26.962Z,4.37
2018-09-14T01:34:27.537Z,4.18
2018-09-14T01:34:28.136Z,4.37
2018-09-14T01:34:28.741Z,4.18
2018-09-14T01:34:29.337Z,4.18
2018-09-14T01:34:29.935Z,4.37
2018-09-14T01:34:30.536Z,4.37
2018-09-14T01:34:31.137Z,4.37
2018-09-14T01:35:24.620Z,4.08
2018-09-14T01:35:25.189Z,4.08
2018-09-14T01:35:25.790Z,4.08
2018-09-14T01:35:26.388Z,4.18
2018-09-14T01:35:26.989Z,4.08
2018-09-14T01:35:27.589Z,4.28
2018-09-14T01:35:28.187Z,3.99
2018-09-14T01:35:28.791Z,4.18
2018-09-14T01:36:23.290Z,4.18
2018-09-14T01:36:23.864Z,4.28
2018-09-14T01:36:24.464Z,4.28
2018-09-14T01:36:25.064Z,4.18
2018-09-14T01:36:25.665Z,4.18
2018-09-14T01:36:26.270Z,4.18
2018-09-14T01:36:26.863Z,4.28
2018-09-14T01:36:27.463Z,4.28
2018-09-14T01:37:20.941Z,4.28
2018-09-14T01:37:21.517Z,3.89
2018-09-14T01:37:22.117Z,3.99
2018-09-14T01:37:22.717Z,3.89
2018-09-14T01:37:23.318Z,3.99
2018-09-14T01:37:23.916Z,3.89
2018-09-14T01:37:24.515Z,3.80
2018-09-14T01:37:25.116Z,3.99
2018-09-14T01:38:19.618Z,3.70
2018-09-14T01:38:20.191Z,3.80
2018-09-14T01:38:20.792Z,3.80
2018-09-14T01:38:21.393Z,3.80
2018-09-14T01:38:21.992Z,3.89
2018-09-14T01:38:22.591Z,3.80
2018-09-14T01:38:23.190Z,3.80
2018-09-14T01:38:23.796Z,3.70
2018-09-14T01:39:17.270Z,3.89
2018-09-14T01:39:17.847Z,3.89
2018-09-14T01:39:18.445Z,3.80
2018-09-14T01:39:19.045Z,3.80
2018-09-14T01:39:19.644Z,3.89
2018-09-14T01:39:20.247Z,3.70
2018-09-14T01:39:20.844Z,3.89
2018-09-14T01:39:21.445Z,3.89
2018-09-14T01:40:14.923Z,3.89
2018-09-14T01:40:15.497Z,3.89
2018-09-14T01:40:16.096Z,3.61
2018-09-14T01:40:16.697Z,3.70
2018-09-14T01:40:17.298Z,3.33
2018-09-14T01:40:17.901Z,3.61
2018-09-14T01:40:18.495Z,3.42
2018-09-14T01:40:19.096Z,3.61
2018-09-14T01:41:12.575Z,3.42
2018-09-14T01:41:13.151Z,3.42
2018-09-14T01:41:13.748Z,3.42
2018-09-14T01:41:14.347Z,3.42
2018-09-14T01:41:14.948Z,3.42
2018-09-14T01:41:15.548Z,3.42
2018-09-14T01:41:16.149Z,3.42
2018-09-14T01:41:16.748Z,3.42
2018-09-14T01:42:10.226Z,3.42
2018-09-14T01:42:10.800Z,3.61
2018-09-14T01:42:11.401Z,3.61
2018-09-14T01:42:12.000Z,3.42
2018-09-14T01:42:12.600Z,3.52
2018-09-14T01:42:13.201Z,3.61
2018-09-14T01:42:13.800Z,3.61
2018-09-14T01:42:14.400Z,3.42
2018-09-14T01:43:07.878Z,3.52
2018-09-14T01:43:08.453Z,3.52
2018-09-14T01:43:09.053Z,3.61
2018-09-14T01:43:09.651Z,3.61
2018-09-14T01:43:10.252Z,3.52
2018-09-14T01:43:10.852Z,3.61
2018-09-14T01:43:11.451Z,3.61
2018-09-14T01:43:12.052Z,3.61
2018-09-14T01:44:05.530Z,3.61
2018-09-14T01:44:06.106Z,3.52
2018-09-14T01:44:06.707Z,3.61
2018-09-14T01:44:07.307Z,3.61
2018-09-14T01:44:07.904Z,3.52
2018-09-14T01:44:08.504Z,3.70
2018-09-14T01:44:09.105Z,3.70
2018-09-14T01:44:09.704Z,3.61
2018-09-14T01:45:03.181Z,3.52
2018-09-14T01:45:03.757Z,3.80
2018-09-14T01:45:04.355Z,3.52
2018-09-14T01:45:04.957Z,3.42
2018-09-14T01:45:05.556Z,3.42
2018-09-14T01:45:06.155Z,3.52
2018-09-14T01:45:06.759Z,3.52
2018-09-14T01:45:07.355Z,3.70
2018-09-14T01:46:00.841Z,3.70
2018-09-14T01:46:01.408Z,3.70
2018-09-14T01:46:02.008Z,3.61
2018-09-14T01:46:02.607Z,3.61
2018-09-14T01:46:03.208Z,3.70
2018-09-14T01:46:03.811Z,3.33
2018-09-14T01:46:04.406Z,3.33
2018-09-14T01:46:05.007Z,3.61
2018-09-14T01:46:59.510Z,3.33
2018-09-14T01:47:00.083Z,3.23
2018-09-14T01:47:00.685Z,3.42
2018-09-14T01:47:01.282Z,3.42
2018-09-14T01:47:01.886Z,3.04
2018-09-14T01:47:02.483Z,3.42
2018-09-14T01:47:03.082Z,3.42
2018-09-14T01:47:03.682Z,3.14
2018-09-14T01:47:58.189Z,3.04
2018-09-14T01:47:58.758Z,3.33
2018-09-14T01:47:59.361Z,3.23
2018-09-14T01:47:59.959Z,3.23
2018-09-14T01:48:00.560Z,3.33
2018-09-14T01:48:01.159Z,3.33
2018-09-14T01:48:01.761Z,3.14
2018-09-14T01:48:02.357Z,3.23
2018-09-14T01:48:55.836Z,3.04
2018-09-14T01:48:56.412Z,3.14
2018-09-14T01:48:57.012Z,3.23
2018-09-14T01:48:57.611Z,3.14
2018-09-14T01:48:58.211Z,3.23
2018-09-14T01:48:58.814Z,3.14
2018-09-14T01:48:59.411Z,3.23
2018-09-14T01:49:00.011Z,3.23
2018-09-14T01:49:53.489Z,3.14
2018-09-14T01:49:54.064Z,3.14
2018-09-14T01:49:54.663Z,3.14
2018-09-14T01:49:55.263Z,3.23
2018-09-14T01:49:55.863Z,3.23
2018-09-14T01:49:56.462Z,3.23
2018-09-14T01:49:57.062Z,3.23
2018-09-14T01:49:57.662Z,3.14
2018-09-14T01:50:52.165Z,3.33
2018-09-14T01:50:52.738Z,3.23
2018-09-14T01:50:53.338Z,3.33
2018-09-14T01:50:53.938Z,2.85
2018-09-14T01:50:54.538Z,2.94
2018-09-14T01:50:55.138Z,3.33
2018-09-14T01:50:55.738Z,3.23
2018-09-14T01:50:56.337Z,3.33
2018-09-14T01:51:49.815Z,3.33
2018-09-14T01:51:50.391Z,2.94
2018-09-14T01:51:50.990Z,3.23
2018-09-14T01:51:51.589Z,3.14
2018-09-14T01:51:52.194Z,3.23
2018-09-14T01:51:52.791Z,3.23
2018-09-14T01:51:53.390Z,2.94
2018-09-14T01:51:53.989Z,2.94
2018-09-14T01:52:47.471Z,3.33
2018-09-14T01:52:48.043Z,2.75
2018-09-14T01:52:48.647Z,3.14
2018-09-14T01:52:49.243Z,2.95
2018-09-14T01:52:49.842Z,3.33
2018-09-14T01:52:50.442Z,3.14
2018-09-14T01:52:51.041Z,2.95
2018-09-14T01:52:51.645Z,2.94
2018-09-14T01:53:45.120Z,3.14
2018-09-14T01:53:45.695Z,3.14
2018-09-14T01:53:46.293Z,3.33
2018-09-14T01:53:46.899Z,3.23
2018-09-14T01:53:47.494Z,3.14
2018-09-14T01:53:48.096Z,3.33
2018-09-14T01:53:48.692Z,3.33
2018-09-14T01:53:49.290Z,3.23
2018-09-14T01:54:42.771Z,3.33
2018-09-14T01:54:43.345Z,3.23
2018-09-14T01:54:43.947Z,3.14
2018-09-14T01:54:44.546Z,3.04
2018-09-14T01:54:45.145Z,3.23
2018-09-14T01:54:45.745Z,3.23
2018-09-14T01:54:46.344Z,3.23
2018-09-14T01:54:46.946Z,3.33
2018-09-14T01:55:41.449Z,3.23
2018-09-14T01:55:42.022Z,3.14
2018-09-14T01:55:42.620Z,3.04
2018-09-14T01:55:43.221Z,3.04
2018-09-14T01:55:43.820Z,3.23
2018-09-14T01:55:44.420Z,3.23
2018-09-14T01:55:45.020Z,3.04
2018-09-14T01:55:45.620Z,3.14
2018-09-14T01:56:39.098Z,2.95
2018-09-14T01:56:39.689Z,3.14
2018-09-14T01:56:40.335Z,3.04
2018-09-14T01:56:40.875Z,3.04
2018-09-14T01:56:41.473Z,2.95
2018-09-14T01:56:42.127Z,3.14
2018-09-14T01:56:42.674Z,3.14
2018-09-14T01:56:43.276Z,3.14
2018-09-14T01:57:36.749Z,3.23
2018-09-14T01:57:37.326Z,3.42
2018-09-14T01:57:37.925Z,3.33
2018-09-14T01:57:38.527Z,3.14
2018-09-14T01:57:39.123Z,3.14
2018-09-14T01:57:39.724Z,3.42
2018-09-14T01:57:40.322Z,3.33
2018-09-14T01:57:40.925Z,3.33
2018-09-14T01:58:35.427Z,3.61
2018-09-14T01:58:36.003Z,3.52
2018-09-14T01:58:36.600Z,3.52
2018-09-14T01:58:37.201Z,3.61
2018-09-14T01:58:37.800Z,3.52
2018-09-14T01:58:38.400Z,3.52
2018-09-14T01:58:38.999Z,3.52
2018-09-14T01:58:39.601Z,3.52
2018-09-14T01:59:33.081Z,3.70
2018-09-14T01:59:33.653Z,3.61
2018-09-14T01:59:34.252Z,3.70
2018-09-14T01:59:34.852Z,3.61
2018-09-14T01:59:35.453Z,3.61
2018-09-14T01:59:36.051Z,3.61
2018-09-14T01:59:36.651Z,3.61
2018-09-14T01:59:37.254Z,3.61
2018-09-14T02:00:30.730Z,3.42
2018-09-14T02:00:31.305Z,3.52
2018-09-14T02:00:31.905Z,3.42
2018-09-14T02:00:32.508Z,3.33
2018-09-14T02:00:33.104Z,3.42
2018-09-14T02:00:33.704Z,3.52
2018-09-14T02:00:34.304Z,3.52
2018-09-14T02:00:34.907Z,3.33
2018-09-14T02:01:29.406Z,3.61
2018-09-14T02:01:29.984Z,3.90
2018-09-14T02:01:30.580Z,3.80
2018-09-14T02:01:31.180Z,3.80
2018-09-14T02:01:31.780Z,3.80
2018-09-14T02:01:32.379Z,3.90
2018-09-14T02:01:32.979Z,3.99
2018-09-14T02:01:33.581Z,4.09
2018-09-14T02:02:27.055Z,4.28
2018-09-14T02:02:27.632Z,4.09
2018-09-14T02:02:28.232Z,4.28
2018-09-14T02:02:28.833Z,4.18
2018-09-14T02:02:29.433Z,4.09
2018-09-14T02:02:30.034Z,4.09
2018-09-14T02:02:30.631Z,4.18
2018-09-14T02:02:31.236Z,4.09
2018-09-14T02:03:25.746Z,4.28
2018-09-14T02:03:26.312Z,4.37
2018-09-14T02:03:26.955Z,4.28
2018-09-14T02:03:27.563Z,4.37
2018-09-14T02:03:28.155Z,4.28
2018-09-14T02:03:28.741Z,4.28
2018-09-14T02:03:29.373Z,4.37
2018-09-14T02:03:29.972Z,4.37
2018-09-14T02:04:23.385Z,4.75
2018-09-14T02:04:23.960Z,4.85
2018-09-14T02:04:24.560Z,4.94
2018-09-14T02:04:25.160Z,4.75
2018-09-14T02:04:25.757Z,4.47
2018-09-14T02:04:26.359Z,4.75
2018-09-14T02:04:26.958Z,4.75
2018-09-14T02:04:27.561Z,4.66
2018-09-14T02:05:21.036Z,4.85
2018-09-14T02:05:21.611Z,4.85
2018-09-14T02:05:22.211Z,4.75
2018-09-14T02:05:22.810Z,4.57
2018-09-14T02:05:23.410Z,4.57
2018-09-14T02:05:24.009Z,4.85
2018-09-14T02:05:24.612Z,4.57
2018-09-14T02:05:25.216Z,4.47
2018-09-14T02:06:18.692Z,4.94
2018-09-14T02:06:19.264Z,5.04
2018-09-14T02:06:19.863Z,5.13
2018-09-14T02:06:20.463Z,5.04
2018-09-14T02:06:21.062Z,5.04
2018-09-14T02:06:21.662Z,5.04
2018-09-14T02:06:22.264Z,5.04
2018-09-14T02:06:22.863Z,4.94
2018-09-14T02:07:16.339Z,5.23
2018-09-14T02:07:16.922Z,5.32
2018-09-14T02:07:17.514Z,5.23
2018-09-14T02:07:18.114Z,5.23
2018-09-14T02:07:18.714Z,5.23
2018-09-14T02:07:19.314Z,5.32
2018-09-14T02:07:19.915Z,5.32
2018-09-14T02:07:20.515Z,5.32
2018-09-14T02:08:13.990Z,5.80
2018-09-14T02:08:14.566Z,5.71
2018-09-14T02:08:15.166Z,5.71
2018-09-14T02:08:15.765Z,5.71
2018-09-14T02:08:16.366Z,5.80
2018-09-14T02:08:16.965Z,5.80
2018-09-14T02:08:17.569Z,5.71
2018-09-14T02:08:18.168Z,5.71
2018-09-14T02:09:11.643Z,5.99
2018-09-14T02:09:12.218Z,6.27
2018-09-14T02:09:12.817Z,5.99
2018-09-14T02:09:13.417Z,6.09
2018-09-14T02:09:14.017Z,5.99
2018-09-14T02:09:14.616Z,5.99
2018-09-14T02:09:15.217Z,6.09
2018-09-14T02:09:15.819Z,5.99
2018-09-14T02:10:09.295Z,6.46
2018-09-14T02:10:09.869Z,6.37
2018-09-14T02:10:10.471Z,6.46
2018-09-14T02:10:11.069Z,6.27
2018-09-14T02:10:11.668Z,6.37
2018-09-14T02:10:12.269Z,6.56
2018-09-14T02:10:12.869Z,6.56
2018-09-14T02:10:13.469Z,6.27
2018-09-14T02:11:07.973Z,6.85
2018-09-14T02:11:08.548Z,6.94
2018-09-14T02:11:09.147Z,6.85
2018-09-14T02:11:09.745Z,7.04
2018-09-14T02:11:10.345Z,6.94
2018-09-14T02:11:10.943Z,7.04
2018-09-14T02:11:11.543Z,6.75
2018-09-14T02:11:12.147Z,6.75
2018-09-14T02:12:05.624Z,7.60
2018-09-14T02:12:06.196Z,7.13
2018-09-14T02:12:06.797Z,7.13
2018-09-14T02:12:07.402Z,7.51
2018-09-14T02:12:07.997Z,7.51
2018-09-14T02:12:08.596Z,7.42
2018-09-14T02:12:09.196Z,7.70
2018-09-14T02:12:09.797Z,7.51
2018-09-14T02:13:03.274Z,7.89
2018-09-14T02:13:03.848Z,7.89
2018-09-14T02:13:04.447Z,7.99
2018-09-14T02:13:05.051Z,7.99
2018-09-14T02:13:05.649Z,8.08
2018-09-14T02:13:06.247Z,8.08
2018-09-14T02:13:06.850Z,7.99
2018-09-14T02:13:07.452Z,7.99
2018-09-14T02:14:01.951Z,8.18
2018-09-14T02:14:02.529Z,8.08
2018-09-14T02:14:03.122Z,8.18
2018-09-14T02:14:03.723Z,8.08
2018-09-14T02:14:04.323Z,8.08
2018-09-14T02:14:04.923Z,8.08
2018-09-14T02:14:05.522Z,8.18
2018-09-14T02:14:06.124Z,8.18
2018-09-14T02:14:59.601Z,8.27
2018-09-14T02:15:00.175Z,8.27
2018-09-14T02:15:00.777Z,8.37
2018-09-14T02:15:01.373Z,8.65
2018-09-14T02:15:01.974Z,8.27
2018-09-14T02:15:02.577Z,8.65
2018-09-14T02:15:03.174Z,8.65
2018-09-14T02:15:03.775Z,8.27
2018-09-14T02:15:57.252Z,8.37
2018-09-14T02:15:57.828Z,8.65
2018-09-14T02:15:58.426Z,8.37
2018-09-14T02:15:59.031Z,8.94
2018-09-14T02:15:59.628Z,8.37
2018-09-14T02:16:00.229Z,8.75
2018-09-14T02:16:00.834Z,8.47
2018-09-14T02:16:01.430Z,8.75
2018-09-14T02:16:54.904Z,8.65
2018-09-14T02:16:55.480Z,8.56
2018-09-14T02:16:56.080Z,8.65
2018-09-14T02:16:56.679Z,8.65
2018-09-14T02:16:57.279Z,8.65
2018-09-14T02:16:57.879Z,8.56
2018-09-14T02:16:58.479Z,8.75
2018-09-14T02:16:59.082Z,8.56
2018-09-14T02:17:52.555Z,9.03
2018-09-14T02:17:53.132Z,9.03
2018-09-14T02:17:53.731Z,9.13
2018-09-14T02:17:54.331Z,9.03
2018-09-14T02:17:54.932Z,9.03
2018-09-14T02:17:55.531Z,8.94
2018-09-14T02:17:56.131Z,8.84
2018-09-14T02:17:56.734Z,9.22
2018-09-14T02:18:50.209Z,9.61
2018-09-14T02:18:50.783Z,9.61
2018-09-14T02:18:51.384Z,9.61
2018-09-14T02:18:51.980Z,9.70
2018-09-14T02:18:52.584Z,9.70
2018-09-14T02:18:53.182Z,9.61
2018-09-14T02:18:53.790Z,9.70
2018-09-14T02:18:54.381Z,9.70
2018-09-14T02:19:48.885Z,9.42
2018-09-14T02:19:49.457Z,9.42
2018-09-14T02:19:50.057Z,9.42
2018-09-14T02:19:50.656Z,9.22
2018-09-14T02:19:51.256Z,9.51
2018-09-14T02:19:51.857Z,9.22
2018-09-14T02:19:52.455Z,9.22
2018-09-14T02:19:53.063Z,9.22
2018-09-14T02:20:46.535Z,9.89
2018-09-14T02:20:47.110Z,9.99
2018-09-14T02:20:47.709Z,9.89
2018-09-14T02:20:48.310Z,9.89
2018-09-14T02:20:48.910Z,9.80
2018-09-14T02:20:49.512Z,9.89
2018-09-14T02:20:50.113Z,9.80
2018-09-14T02:20:50.712Z,9.80
2018-09-14T02:21:44.188Z,10.36
2018-09-14T02:21:44.762Z,10.36
2018-09-14T02:21:45.361Z,10.36
2018-09-14T02:21:45.963Z,10.36
2018-09-14T02:21:46.565Z,10.56
2018-09-14T02:21:47.161Z,10.36
2018-09-14T02:21:47.762Z,10.36
2018-09-14T02:21:48.365Z,10.46
2018-09-14T02:22:42.864Z,10.75
2018-09-14T02:22:43.437Z,10.75
2018-09-14T02:22:44.036Z,10.75
2018-09-14T02:22:44.637Z,10.84
2018-09-14T02:22:45.239Z,10.84
2018-09-14T02:22:45.836Z,10.94
2018-09-14T02:22:46.444Z,10.85
2018-09-14T02:22:47.038Z,10.65
2018-09-14T02:23:40.513Z,11.32
2018-09-14T02:23:41.094Z,11.22
2018-09-14T02:23:41.688Z,11.41
2018-09-14T02:23:42.287Z,11.41
2018-09-14T02:23:42.887Z,11.41
2018-09-14T02:23:43.487Z,11.32
2018-09-14T02:23:44.087Z,11.60
2018-09-14T02:23:44.692Z,11.60
2018-09-14T02:24:39.192Z,11.41
2018-09-14T02:24:39.764Z,11.89
2018-09-14T02:24:40.364Z,11.89
2018-09-14T02:24:40.964Z,11.98
2018-09-14T02:24:41.564Z,11.89
2018-09-14T02:24:42.164Z,11.79
2018-09-14T02:24:42.763Z,11.89
2018-09-14T02:24:43.366Z,11.79
2018-09-14T02:25:36.905Z,11.98
2018-09-14T02:25:37.467Z,11.89
2018-09-14T02:25:38.078Z,11.90
2018-09-14T02:25:38.673Z,11.98
2018-09-14T02:25:39.329Z,11.89
2018-09-14T02:25:39.907Z,11.89
2018-09-14T02:25:40.486Z,11.89
2018-09-14T02:25:41.082Z,11.89
2018-09-14T02:26:34.493Z,12.27
2018-09-14T02:26:35.069Z,12.84
2018-09-14T02:26:35.669Z,12.84
2018-09-14T02:26:36.271Z,12.56
2018-09-14T02:26:36.869Z,12.84
2018-09-14T02:26:37.471Z,12.85
2018-09-14T02:26:38.068Z,12.74
2018-09-14T02:26:38.672Z,12.55
2018-09-14T02:27:32.145Z,12.93
2018-09-14T02:27:32.720Z,13.03
2018-09-14T02:27:33.321Z,13.03
2018-09-14T02:27:33.921Z,13.03
2018-09-14T02:27:34.520Z,13.04
2018-09-14T02:27:35.119Z,13.03
2018-09-14T02:27:35.720Z,13.23
2018-09-14T02:27:36.322Z,13.03
2018-09-14T02:28:30.823Z,12.84
2018-09-14T02:28:31.396Z,12.93
2018-09-14T02:28:31.995Z,13.12
2018-09-14T02:28:32.595Z,12.75
2018-09-14T02:28:33.194Z,12.75
2018-09-14T02:28:33.796Z,13.12
2018-09-14T02:28:34.394Z,12.94
2018-09-14T02:28:34.997Z,12.75
2018-09-14T02:29:28.473Z,13.22
2018-09-14T02:29:29.047Z,13.13
2018-09-14T02:29:29.647Z,13.13
2018-09-14T02:29:30.251Z,13.13
2018-09-14T02:29:30.849Z,13.23
2018-09-14T02:29:31.449Z,13.12
2018-09-14T02:29:32.047Z,13.12
2018-09-14T02:29:32.650Z,13.12
2018-09-14T02:30:26.125Z,13.41
2018-09-14T02:30:26.700Z,13.51
2018-09-14T02:30:27.300Z,13.42
2018-09-14T02:30:27.899Z,13.42
2018-09-14T02:30:28.499Z,13.41
2018-09-14T02:30:29.102Z,13.41
2018-09-14T02:30:29.696Z,13.41
2018-09-14T02:30:30.299Z,13.32
2018-09-14T02:31:24.803Z,13.89
2018-09-14T02:31:25.374Z,14.08
2018-09-14T02:31:25.973Z,13.70
2018-09-14T02:31:26.575Z,13.99
2018-09-14T02:31:27.175Z,13.99
2018-09-14T02:31:27.774Z,13.99
2018-09-14T02:31:28.373Z,13.98
2018-09-14T02:31:28.975Z,13.60
2018-09-14T02:32:23.477Z,14.55
2018-09-14T02:32:24.052Z,14.46
2018-09-14T02:32:24.650Z,14.46
2018-09-14T02:32:25.250Z,14.36
2018-09-14T02:32:25.849Z,14.65
2018-09-14T02:32:26.449Z,14.37
2018-09-14T02:32:27.050Z,14.37
2018-09-14T02:32:27.650Z,14.47
2018-09-14T02:33:21.128Z,14.46
2018-09-14T02:33:21.703Z,14.55
2018-09-14T02:33:22.302Z,14.84
2018-09-14T02:33:22.906Z,14.65
2018-09-14T02:33:23.504Z,14.84
2018-09-14T02:33:24.103Z,14.55
2018-09-14T02:33:24.702Z,14.46
2018-09-14T02:33:25.304Z,14.74
2018-09-14T02:34:19.805Z,14.65
2018-09-14T02:34:20.377Z,14.84
2018-09-14T02:34:20.978Z,14.74
2018-09-14T02:34:21.579Z,14.74
2018-09-14T02:34:22.177Z,14.74
2018-09-14T02:34:22.777Z,14.84
2018-09-14T02:34:23.377Z,14.75
2018-09-14T02:34:23.979Z,14.84
2018-09-14T02:35:19.043Z,14.55
2018-09-14T02:35:19.550Z,14.55
2018-09-14T02:35:20.143Z,14.28
2018-09-14T02:35:20.743Z,14.46
2018-09-14T02:35:21.348Z,14.47
2018-09-14T02:35:21.942Z,14.28
2018-09-14T02:35:22.543Z,14.36
2018-09-14T02:36:16.029Z,14.17
2018-09-14T02:36:16.607Z,14.28
2018-09-14T02:36:17.203Z,14.47
2018-09-14T02:36:17.813Z,14.28
2018-09-14T02:36:18.409Z,14.46
2018-09-14T02:36:19.002Z,14.28
2018-09-14T02:36:19.603Z,14.47
2018-09-14T02:36:20.205Z,14.36
2018-09-14T02:37:13.679Z,14.26
2018-09-14T02:37:14.255Z,14.28
2018-09-14T02:37:14.855Z,14.37
2018-09-14T02:37:15.454Z,14.08
2018-09-14T02:37:16.058Z,14.17
2018-09-14T02:37:16.658Z,14.28
2018-09-14T02:37:17.254Z,14.28
2018-09-14T02:37:17.856Z,14.37
2018-09-14T02:38:12.358Z,14.37
2018-09-14T02:38:12.930Z,14.47
2018-09-14T02:38:13.529Z,14.26
2018-09-14T02:38:14.130Z,14.37
2018-09-14T02:38:14.729Z,14.36
2018-09-14T02:38:15.329Z,14.28
2018-09-14T02:38:15.930Z,14.26
2018-09-14T02:38:16.532Z,14.36
2018-09-14T02:39:10.008Z,14.93
2018-09-14T02:39:10.581Z,14.84
2018-09-14T02:39:11.182Z,14.55
2018-09-14T02:39:11.782Z,14.65
2018-09-14T02:39:12.381Z,14.84
2018-09-14T02:39:12.980Z,14.75
2018-09-14T02:39:13.583Z,14.65
2018-09-14T02:39:14.182Z,14.65
2018-09-14T02:40:08.685Z,15.70
2018-09-14T02:40:09.258Z,15.61
2018-09-14T02:40:09.857Z,15.32
2018-09-14T02:40:10.457Z,15.60
2018-09-14T02:40:11.063Z,15.51
2018-09-14T02:40:11.662Z,15.51
2018-09-14T02:40:12.257Z,15.51
2018-09-14T02:40:12.859Z,15.61
2018-09-14T02:41:07.360Z,15.79
2018-09-14T02:41:07.934Z,16.08
2018-09-14T02:41:08.533Z,16.08
2018-09-14T02:41:09.133Z,16.08
2018-09-14T02:41:09.733Z,16.08
2018-09-14T02:41:10.332Z,16.08
2018-09-14T02:41:10.932Z,16.08
2018-09-14T02:41:11.534Z,16.17
2018-09-14T02:42:05.012Z,16.36
2018-09-14T02:42:05.586Z,16.46
2018-09-14T02:42:06.185Z,16.55
2018-09-14T02:42:06.785Z,16.46
2018-09-14T02:42:07.385Z,16.17
2018-09-14T02:42:07.985Z,16.17
2018-09-14T02:42:08.584Z,16.37
2018-09-14T02:42:09.186Z,16.75
2018-09-14T02:43:02.663Z,16.93
2018-09-14T02:43:03.237Z,16.75
2018-09-14T02:43:03.838Z,16.85
2018-09-14T02:43:04.437Z,16.74
2018-09-14T02:43:05.038Z,17.32
2018-09-14T02:43:05.639Z,16.65
2018-09-14T02:43:06.237Z,17.22
2018-09-14T02:43:06.838Z,17.12
2018-09-14T02:44:01.340Z,16.83
2018-09-14T02:44:01.912Z,17.03
2018-09-14T02:44:02.512Z,16.65
2018-09-14T02:44:03.113Z,17.13
2018-09-14T02:44:03.711Z,17.22
2018-09-14T02:44:04.311Z,16.74
2018-09-14T02:44:04.916Z,17.32
2018-09-14T02:44:05.513Z,17.13
2018-09-14T02:44:58.988Z,17.41
2018-09-14T02:44:59.578Z,17.31
2018-09-14T02:45:00.169Z,17.41
2018-09-14T02:45:00.768Z,17.22
2018-09-14T02:45:01.364Z,17.41
2018-09-14T02:45:01.967Z,17.41
2018-09-14T02:45:02.563Z,17.31
2018-09-14T02:45:03.164Z,17.41
2018-09-14T02:45:56.642Z,17.50
2018-09-14T02:45:57.217Z,17.60
2018-09-14T02:45:57.816Z,17.41
2018-09-14T02:45:58.416Z,17.41
2018-09-14T02:45:59.017Z,17.60
2018-09-14T02:45:59.618Z,17.70
2018-09-14T02:46:00.215Z,17.80
2018-09-14T02:46:00.821Z,17.69
2018-09-14T02:46:55.324Z,17.79
2018-09-14T02:46:55.892Z,17.97
2018-09-14T02:46:56.490Z,17.69
2018-09-14T02:46:57.090Z,17.69
2018-09-14T02:46:57.691Z,17.97
2018-09-14T02:46:58.292Z,17.79
2018-09-14T02:46:58.891Z,17.88
2018-09-14T02:46:59.492Z,17.89
2018-09-14T02:47:53.993Z,18.45
2018-09-14T02:47:54.566Z,18.16
2018-09-14T02:47:55.166Z,18.64
2018-09-14T02:47:55.766Z,17.97
2018-09-14T02:47:56.367Z,18.74
2018-09-14T02:47:56.966Z,18.45
2018-09-14T02:47:57.566Z,18.64
2018-09-14T02:47:58.168Z,18.64
2018-09-14T02:48:51.646Z,18.74
2018-09-14T02:48:52.220Z,18.84
2018-09-14T02:48:52.819Z,18.93
2018-09-14T02:48:53.422Z,19.02
2018-09-14T02:48:54.020Z,18.84
2018-09-14T02:48:54.619Z,18.93
2018-09-14T02:48:55.219Z,18.74
2018-09-14T02:48:55.821Z,18.93
2018-09-14T02:49:49.296Z,18.84
2018-09-14T02:49:49.872Z,18.84
2018-09-14T02:49:50.471Z,18.84
2018-09-14T02:49:51.070Z,18.93
2018-09-14T02:49:51.673Z,18.74
2018-09-14T02:49:52.272Z,18.84
2018-09-14T02:49:52.871Z,18.84
2018-09-14T02:49:53.472Z,18.74
2018-09-14T02:50:46.948Z,18.84
2018-09-14T02:50:47.524Z,18.84
2018-09-14T02:50:48.122Z,18.84
2018-09-14T02:50:48.729Z,18.84
2018-09-14T02:50:49.324Z,18.74
2018-09-14T02:50:49.922Z,18.84
2018-09-14T02:50:50.525Z,18.74
2018-09-14T02:50:51.126Z,18.84
2018-09-14T02:51:45.625Z,18.64
2018-09-14T02:51:46.197Z,18.26
2018-09-14T02:51:46.799Z,18.74
2018-09-14T02:51:47.399Z,18.08
2018-09-14T02:51:47.998Z,18.18
2018-09-14T02:51:48.597Z,18.16
2018-09-14T02:51:49.200Z,18.08
2018-09-14T02:51:49.802Z,18.26
2018-09-14T02:52:44.303Z,18.74
2018-09-14T02:52:44.873Z,18.65
2018-09-14T02:52:45.474Z,18.84
2018-09-14T02:52:46.074Z,18.74
2018-09-14T02:52:46.673Z,18.64
2018-09-14T02:52:47.278Z,18.74
2018-09-14T02:52:47.873Z,18.65
2018-09-14T02:52:48.478Z,18.65
2018-09-14T02:53:41.951Z,18.84
2018-09-14T02:53:42.526Z,18.84
2018-09-14T02:53:43.125Z,18.84
2018-09-14T02:53:43.724Z,18.93
2018-09-14T02:53:44.325Z,18.93
2018-09-14T02:53:44.928Z,19.03
2018-09-14T02:53:45.524Z,18.84
2018-09-14T02:53:46.125Z,18.84
2018-09-14T02:54:39.602Z,18.84
2018-09-14T02:54:40.177Z,19.03
2018-09-14T02:54:40.777Z,18.84
2018-09-14T02:54:41.387Z,18.84
2018-09-14T02:54:41.977Z,18.84
2018-09-14T02:54:42.582Z,18.94
2018-09-14T02:54:43.179Z,19.02
2018-09-14T02:54:43.778Z,19.02
2018-09-14T02:55:38.280Z,19.02
2018-09-14T02:55:38.859Z,19.02
2018-09-14T02:55:39.453Z,19.02
2018-09-14T02:55:40.052Z,19.02
2018-09-14T02:55:40.652Z,19.21
2018-09-14T02:55:41.253Z,19.02
2018-09-14T02:55:41.854Z,19.13
2018-09-14T02:55:42.452Z,19.13
2018-09-14T02:56:35.929Z,19.21
2018-09-14T02:56:36.509Z,19.21
2018-09-14T02:56:37.106Z,19.12
2018-09-14T02:56:37.705Z,19.12
2018-09-14T02:56:38.304Z,19.02
2018-09-14T02:56:38.907Z,19.59
2018-09-14T02:56:39.504Z,19.31
2018-09-14T02:56:40.105Z,19.12
2018-09-14T02:57:34.609Z,19.98
2018-09-14T02:57:35.180Z,19.98
2018-09-14T02:57:35.779Z,20.07
2018-09-14T02:57:36.380Z,19.98
2018-09-14T02:57:36.979Z,20.07
2018-09-14T02:57:37.579Z,19.98
2018-09-14T02:57:38.180Z,20.17
2018-09-14T02:57:38.780Z,20.17
2018-09-14T02:58:33.282Z,19.59
2018-09-14T02:58:33.858Z,19.59
2018-09-14T02:58:34.404Z,19.70
2018-09-14T02:58:35.004Z,19.70
2018-09-14T02:58:35.607Z,19.70
2018-09-14T02:58:36.203Z,19.79
2018-09-14T02:58:36.804Z,19.59
2018-09-14T02:58:37.404Z,19.70
2018-09-14T02:59:30.952Z,19.32
2018-09-14T02:59:31.528Z,19.32
2018-09-14T02:59:32.127Z,19.32
2018-09-14T02:59:32.728Z,19.32
2018-09-14T02:59:33.329Z,19.22
2018-09-14T02:59:33.928Z,19.21
2018-09-14T02:59:34.527Z,19.13
2018-09-14T02:59:35.126Z,19.32
2018-09-14T03:00:28.707Z,18.94
2018-09-14T03:00:29.287Z,18.74
2018-09-14T03:00:29.883Z,18.94
2018-09-14T03:00:30.483Z,18.74
2018-09-14T03:00:31.083Z,18.84
2018-09-14T03:00:31.683Z,18.84
2018-09-14T03:00:32.288Z,18.64
2018-09-14T03:00:32.882Z,18.74
2018-09-14T03:01:26.463Z,18.27
2018-09-14T03:01:27.037Z,18.27
2018-09-14T03:01:27.636Z,18.27
2018-09-14T03:01:28.287Z,18.46
2018-09-14T03:01:28.837Z,18.27
2018-09-14T03:01:29.436Z,18.27
2018-09-14T03:01:30.034Z,18.37
2018-09-14T03:01:30.639Z,18.27
2018-09-14T03:02:24.217Z,18.08
2018-09-14T03:02:24.791Z,18.27
2018-09-14T03:02:25.391Z,18.18
2018-09-14T03:02:25.990Z,18.37
2018-09-14T03:02:26.593Z,18.18
2018-09-14T03:02:27.189Z,18.37
2018-09-14T03:02:27.790Z,18.27
2018-09-14T03:02:28.387Z,18.18
2018-09-14T03:03:21.971Z,18.08
2018-09-14T03:03:22.548Z,17.89
2018-09-14T03:03:23.145Z,18.18
2018-09-14T03:03:23.745Z,18.18
2018-09-14T03:03:24.345Z,18.18
2018-09-14T03:03:24.945Z,18.18
2018-09-14T03:03:25.545Z,17.89
2018-09-14T03:03:26.144Z,17.70
2018-09-14T03:04:19.723Z,17.99
2018-09-14T03:04:20.301Z,18.18
2018-09-14T03:04:20.901Z,17.99
2018-09-14T03:04:21.498Z,17.99
2018-09-14T03:04:22.101Z,17.99
2018-09-14T03:04:22.700Z,18.27
2018-09-14T03:04:23.297Z,18.18
2018-09-14T03:04:23.897Z,18.27
2018-09-14T03:05:17.428Z,17.99
2018-09-14T03:05:18.003Z,18.08
2018-09-14T03:05:18.604Z,18.27
2018-09-14T03:05:19.201Z,18.08
2018-09-14T03:05:19.802Z,18.18
2018-09-14T03:05:20.401Z,18.27
2018-09-14T03:05:21.001Z,18.65
2018-09-14T03:05:21.601Z,18.74
2018-09-14T03:06:15.109Z,18.27
2018-09-14T03:06:15.684Z,18.27
2018-09-14T03:06:16.283Z,18.37
2018-09-14T03:06:16.832Z,18.18
2018-09-14T03:06:17.434Z,18.08